Time;durP1;ratioP1;P1;durP2;ratioP2;P2;SDS_P1;SDS_P2;PMS_P1;PMS_P2;Temp;Humidity;BMP_temperature;BMP_pressure;BME280_temperature;BME280_humidity;BME280_pressure;Samples;Min_cycle;Max_cycle;Signal;HPM_P1;HPM_P2
2022/01/23 00:00:18;;;;;;;78.07;33.58;;;;;;;;;;5009105;28;20527;-68
2022/01/23 00:02:45;;;;;;;82.13;34.60;;;;;;;;;;5006094;28;20030;-68
2022/01/23 00:05:10;;;;;;;79.53;33.28;;;;;;;;;;5011259;28;20034;-68
2022/01/23 00:07:37;;;;;;;81.05;34.30;;;;;;;;;;4993990;28;20029;-68
2022/01/23 00:10:06;;;;;;;83.72;37.03;;;;;;;;;;5011615;28;20033;-68
2022/01/23 00:12:36;;;;;;;83.05;35.08;;;;;;;;;;5011925;28;20406;-68
2022/01/23 00:17:46;;;;;;;82.32;35.70;;;;;;;;;;5011208;28;20390;-68
2022/01/23 00:20:14;;;;;;;89.07;36.45;;;;;;;;;;5011224;28;20018;-68
2022/01/23 00:22:50;;;;;;;90.40;37.08;;;;;;;;;;4997814;28;20104;-68
2022/01/23 00:30:46;;;;;;;95.15;36.42;;;;;;;;;;5011780;28;20040;-68
2022/01/23 00:33:11;;;;;;;87.82;36.45;;;;;;;;;;5010424;28;20014;-68
2022/01/23 00:35:38;;;;;;;82.70;36.50;;;;;;;;;;5010988;28;20360;-68
2022/01/23 00:38:04;;;;;;;98.60;38.70;;;;;;;;;;5010962;28;20026;-68
2022/01/23 00:40:30;;;;;;;93.63;37.85;;;;;;;;;;5010898;28;20025;-68
2022/01/23 00:42:56;;;;;;;89.50;36.65;;;;;;;;;;5010124;28;20030;-68
2022/01/23 00:45:35;;;;;;;92.50;38.42;;;;;;;;;;4993521;28;20029;-68
2022/01/23 00:48:04;;;;;;;93.13;38.03;;;;;;;;;;5010500;28;20022;-68
2022/01/23 00:50:31;;;;;;;100.18;43.15;;;;;;;;;;5011255;28;20100;-68
2022/01/23 00:52:56;;;;;;;90.28;37.10;;;;;;;;;;5010962;28;20056;-68
2022/01/23 00:55:21;;;;;;;91.88;38.92;;;;;;;;;;5011011;28;20518;-68
2022/01/23 00:57:46;;;;;;;96.85;37.65;;;;;;;;;;5010481;28;20017;-68
2022/01/23 01:00:13;;;;;;;102.05;42.25;;;;;;;;;;5010978;28;20018;-68
2022/01/23 01:02:38;;;;;;;87.80;37.95;;;;;;;;;;5010523;28;20406;-68
2022/01/23 01:05:04;;;;;;;95.18;38.30;;;;;;;;;;5010250;28;20026;-68
2022/01/23 01:07:29;;;;;;;100.57;40.92;;;;;;;;;;5010114;28;20108;-68
2022/01/23 01:09:59;;;;;;;103.15;41.05;;;;;;;;;;5010370;28;20108;-68
2022/01/23 01:12:30;;;;;;;100.75;40.10;;;;;;;;;;5009995;28;20029;-68
2022/01/23 01:15:22;;;;;;;106.30;40.28;;;;;;;;;;5009977;28;20063;-68
2022/01/23 01:34:07;;;;;;;99.57;40.50;;;;;;;;;;5010576;28;20099;-68
2022/01/23 01:36:47;;;;;;;103.15;42.08;;;;;;;;;;5009528;28;20041;-68
2022/01/23 01:39:12;;;;;;;99.78;39.25;;;;;;;;;;5010048;28;20034;-68
2022/01/23 01:41:39;;;;;;;100.20;40.70;;;;;;;;;;5010165;28;20450;-68
2022/01/23 01:44:04;;;;;;;108.78;43.83;;;;;;;;;;5010048;28;20026;-68
2022/01/23 01:46:29;;;;;;;104.68;43.35;;;;;;;;;;5010250;28;20022;-68
2022/01/23 01:48:55;;;;;;;104.78;41.00;;;;;;;;;;5009944;28;20489;-68
2022/01/23 01:51:20;;;;;;;105.38;43.05;;;;;;;;;;5009450;28;20030;-68
2022/01/23 01:53:52;;;;;;;102.75;41.95;;;;;;;;;;5030299;23;20046;-64
2022/01/23 01:56:18;;;;;;;107.47;41.85;;;;;;;;;;4996293;28;20026;-64
2022/01/23 02:09:14;;;;;;;106.25;42.03;;;;;;;;;;4990355;28;20122;-65
2022/01/23 02:22:44;;;;;;;98.07;41.33;;;;;;;;;;4992252;28;20129;-65
2022/01/23 02:25:29;;;;;;;101.57;39.80;;;;;;;;;;4988312;28;20421;-65
2022/01/23 02:52:56;;;;;;;110.88;42.05;;;;;;;;;;4993440;28;20032;-65
2022/01/23 02:55:26;;;;;;;102.68;40.25;;;;;;;;;;4993043;28;20036;-65
2022/01/23 03:00:19;;;;;;;104.80;43.75;;;;;;;;;;4993204;28;20121;-65
2022/01/23 03:02:48;;;;;;;111.47;46.78;;;;;;;;;;4985216;28;20030;-65
2022/01/23 03:05:35;;;;;;;95.15;41.55;;;;;;;;;;4992665;28;20068;-65
2022/01/23 03:10:44;;;;;;;104.97;42.22;;;;;;;;;;4993364;28;20022;-65
2022/01/23 03:34:06;;;;;;;97.35;39.20;;;;;;;;;;4992866;28;20034;-65
2022/01/23 03:36:31;;;;;;;96.68;38.80;;;;;;;;;;4992531;28;20080;-65
2022/01/23 03:38:56;;;;;;;96.07;38.47;;;;;;;;;;4992470;28;20026;-65
2022/01/23 03:41:21;;;;;;;94.47;38.55;;;;;;;;;;4990807;28;20026;-65
2022/01/23 03:43:46;;;;;;;97.15;39.58;;;;;;;;;;4992127;28;20463;-65
2022/01/23 03:46:34;;;;;;;101.10;39.45;;;;;;;;;;4992687;28;20019;-65
2022/01/23 03:51:43;;;;;;;99.13;39.85;;;;;;;;;;4992505;28;20417;-65
2022/01/23 03:54:08;;;;;;;92.00;37.15;;;;;;;;;;4991693;28;20026;-65
2022/01/23 03:56:33;;;;;;;92.28;36.97;;;;;;;;;;4992107;28;20053;-65
2022/01/23 03:58:58;;;;;;;91.13;37.28;;;;;;;;;;4991916;28;20489;-65
2022/01/23 04:01:24;;;;;;;91.70;37.70;;;;;;;;;;4991338;28;20030;-65
2022/01/23 04:03:51;;;;;;;95.80;38.67;;;;;;;;;;4992115;28;20013;-65
2022/01/23 04:06:16;;;;;;;95.85;38.72;;;;;;;;;;4991896;28;20022;-65
2022/01/23 04:08:42;;;;;;;84.85;36.63;;;;;;;;;;4990173;28;20031;-65
2022/01/23 04:11:07;;;;;;;93.55;37.88;;;;;;;;;;4991409;28;20470;-65
2022/01/23 04:31:44;;;;;;;90.43;35.65;;;;;;;;;;4991932;28;20026;-65
2022/01/23 04:35:45;;;;;;;109.22;40.20;;;;;;;;;;4991611;28;20041;-65
2022/01/23 04:59:55;;;;;;;95.38;37.97;;;;;;;;;;4986282;28;20065;-65
2022/01/23 05:04:50;;;;;;;106.28;40.63;;;;;;;;;;4988808;28;20387;-65
2022/01/23 05:07:17;;;;;;;97.63;38.60;;;;;;;;;;4981683;28;20032;-65
2022/01/23 05:09:42;;;;;;;95.53;39.38;;;;;;;;;;4977479;28;20026;-65
2022/01/23 05:12:08;;;;;;;95.03;38.72;;;;;;;;;;4988436;28;20109;-65
2022/01/23 05:17:00;;;;;;;95.65;38.60;;;;;;;;;;4989018;28;20395;-65
2022/01/23 05:19:25;;;;;;;94.05;38.97;;;;;;;;;;4987793;28;20057;-65
2022/01/23 05:22:05;;;;;;;105.20;39.80;;;;;;;;;;4988204;28;20022;-65
2022/01/23 05:24:44;;;;;;;104.18;38.67;;;;;;;;;;4989131;28;20022;-65
2022/01/23 05:27:10;;;;;;;98.57;40.60;;;;;;;;;;4989905;28;20026;-65
2022/01/23 05:29:36;;;;;;;99.80;39.15;;;;;;;;;;4985305;28;20049;-65
2022/01/23 05:32:02;;;;;;;103.40;40.60;;;;;;;;;;4988309;28;20101;-65
2022/01/23 05:34:28;;;;;;;99.35;39.38;;;;;;;;;;4988383;28;20022;-65
2022/01/23 05:36:53;;;;;;;105.50;41.25;;;;;;;;;;4988216;28;20379;-65
2022/01/23 05:39:21;;;;;;;106.82;42.78;;;;;;;;;;4988165;28;20568;-65
2022/01/23 05:41:46;;;;;;;100.10;40.22;;;;;;;;;;4988129;28;20018;-65
2022/01/23 05:44:12;;;;;;;97.97;39.50;;;;;;;;;;4988635;28;20030;-65
2022/01/23 05:46:37;;;;;;;105.65;44.08;;;;;;;;;;4987249;28;20023;-65
2022/01/23 05:49:02;;;;;;;123.60;42.38;;;;;;;;;;4988620;28;20525;-65
2022/01/23 05:51:28;;;;;;;99.57;41.08;;;;;;;;;;4988828;28;20023;-65
2022/01/23 05:53:53;;;;;;;108.57;40.25;;;;;;;;;;4988171;28;20169;-65
2022/01/23 05:56:18;;;;;;;91.70;39.03;;;;;;;;;;4989079;28;20048;-65
2022/01/23 05:58:43;;;;;;;93.57;38.47;;;;;;;;;;4991859;28;20479;-65
2022/01/23 06:01:09;;;;;;;98.30;38.25;;;;;;;;;;4992278;28;20022;-65
2022/01/23 06:03:34;;;;;;;102.82;39.92;;;;;;;;;;4992366;28;20030;-65
2022/01/23 06:05:59;;;;;;;102.10;38.10;;;;;;;;;;4992540;28;20010;-65
2022/01/23 06:08:25;;;;;;;97.07;41.27;;;;;;;;;;4992046;28;20657;-65
2022/01/23 06:10:54;;;;;;;97.78;39.08;;;;;;;;;;4991406;28;20283;-65
2022/01/23 06:13:20;;;;;;;101.75;39.95;;;;;;;;;;4991566;28;20027;-65
2022/01/23 06:15:45;;;;;;;104.88;40.53;;;;;;;;;;4991666;28;20117;-65
2022/01/23 06:18:10;;;;;;;97.22;38.72;;;;;;;;;;4991279;28;20210;-65
2022/01/23 06:20:36;;;;;;;103.50;39.07;;;;;;;;;;4991334;28;20034;-65
2022/01/23 06:23:01;;;;;;;93.05;38.55;;;;;;;;;;4991697;28;20339;-65
2022/01/23 06:25:32;;;;;;;89.85;39.17;;;;;;;;;;4992134;28;20479;-65
2022/01/23 06:27:58;;;;;;;97.70;39.25;;;;;;;;;;4991039;28;20457;-65
2022/01/23 06:30:23;;;;;;;93.38;37.20;;;;;;;;;;4992216;28;20021;-65
2022/01/23 06:32:48;;;;;;;96.07;43.00;;;;;;;;;;4990603;28;20367;-65
2022/01/23 06:35:14;;;;;;;87.75;37.47;;;;;;;;;;4991935;28;20022;-65
2022/01/23 06:37:39;;;;;;;96.32;39.63;;;;;;;;;;4990777;28;20030;-65
2022/01/23 06:40:04;;;;;;;98.70;39.15;;;;;;;;;;4991762;28;20429;-65
2022/01/23 06:42:29;;;;;;;98.10;40.00;;;;;;;;;;4991862;28;20069;-65
2022/01/23 06:44:56;;;;;;;105.20;38.90;;;;;;;;;;4991751;28;20049;-65
2022/01/23 06:47:21;;;;;;;105.50;40.15;;;;;;;;;;4991278;28;20367;-65
2022/01/23 06:49:47;;;;;;;90.53;38.78;;;;;;;;;;4990944;28;20101;-65
2022/01/23 06:52:12;;;;;;;97.32;40.60;;;;;;;;;;4990732;28;20096;-65
2022/01/23 06:54:37;;;;;;;102.40;40.17;;;;;;;;;;4989047;28;20465;-65
2022/01/23 06:57:03;;;;;;;102.18;39.70;;;;;;;;;;4990418;28;20030;-65
2022/01/23 06:59:28;;;;;;;103.68;40.28;;;;;;;;;;4989949;28;20541;-65
2022/01/23 07:01:53;;;;;;;104.18;39.78;;;;;;;;;;4990457;28;20458;-65
2022/01/23 07:04:18;;;;;;;105.95;42.97;;;;;;;;;;4990551;28;20041;-65
2022/01/23 07:06:44;;;;;;;94.85;36.65;;;;;;;;;;4984442;28;20551;-65
2022/01/23 07:09:09;;;;;;;98.18;39.00;;;;;;;;;;4991120;28;20277;-65
2022/01/23 07:11:34;;;;;;;97.55;39.17;;;;;;;;;;4988536;28;20023;-65
2022/01/23 07:13:59;;;;;;;102.47;39.53;;;;;;;;;;4988700;28;20022;-65
2022/01/23 07:16:24;;;;;;;93.78;38.30;;;;;;;;;;4991103;28;20420;-65
2022/01/23 07:18:49;;;;;;;99.88;38.22;;;;;;;;;;4990871;28;20041;-65
2022/01/23 07:21:15;;;;;;;105.10;39.38;;;;;;;;;;4991195;28;20030;-65
2022/01/23 07:23:48;;;;;;;100.70;40.08;;;;;;;;;;4990828;28;20494;-65
2022/01/23 07:26:14;;;;;;;99.28;38.78;;;;;;;;;;4990954;28;20109;-65
2022/01/23 07:28:41;;;;;;;99.63;36.03;;;;;;;;;;4990121;28;20093;-65
2022/01/23 07:31:09;;;;;;;99.80;37.72;;;;;;;;;;4988857;28;20077;-65
2022/01/23 07:33:36;;;;;;;99.72;39.60;;;;;;;;;;4989883;28;20351;-65
2022/01/23 07:36:02;;;;;;;106.50;40.55;;;;;;;;;;4990628;28;20462;-65
2022/01/23 07:38:27;;;;;;;106.03;39.72;;;;;;;;;;4990278;28;20022;-65
2022/01/23 07:40:52;;;;;;;101.38;37.47;;;;;;;;;;4990096;28;20466;-65
2022/01/23 07:43:17;;;;;;;99.87;37.00;;;;;;;;;;4989537;28;20037;-65
2022/01/23 07:45:43;;;;;;;96.53;39.50;;;;;;;;;;4989037;28;20617;-65
2022/01/23 07:48:09;;;;;;;105.82;38.97;;;;;;;;;;4988727;28;20014;-65
2022/01/23 07:50:36;;;;;;;97.68;37.83;;;;;;;;;;4984797;28;20022;-65
2022/01/23 07:53:01;;;;;;;90.68;35.78;;;;;;;;;;4992282;28;20560;-65
2022/01/23 07:55:27;;;;;;;105.00;38.17;;;;;;;;;;5007027;23;20070;-66
2022/01/23 07:57:53;;;;;;;98.75;40.70;;;;;;;;;;5011916;28;20104;-65
2022/01/23 08:00:19;;;;;;;99.75;38.67;;;;;;;;;;5007615;28;20030;-67
2022/01/23 08:02:44;;;;;;;98.38;39.13;;;;;;;;;;5007748;28;20019;-65
2022/01/23 08:05:10;;;;;;;112.78;41.67;;;;;;;;;;5007362;28;20032;-66
2022/01/23 08:07:36;;;;;;;106.20;41.72;;;;;;;;;;5010688;28;20022;-66
2022/01/23 08:10:03;;;;;;;107.60;40.33;;;;;;;;;;5011923;28;20386;-66
2022/01/23 08:12:29;;;;;;;109.13;40.88;;;;;;;;;;5010346;28;20449;-65
2022/01/23 08:14:55;;;;;;;101.22;41.72;;;;;;;;;;5004614;28;20023;-65
2022/01/23 08:17:24;;;;;;;107.22;40.17;;;;;;;;;;5005416;28;20490;-65
2022/01/23 08:19:50;;;;;;;101.90;40.58;;;;;;;;;;5002917;28;20025;-65
2022/01/23 08:22:15;;;;;;;116.43;42.42;;;;;;;;;;5010781;28;20029;-66
2022/01/23 08:24:40;;;;;;;93.05;37.58;;;;;;;;;;5010976;28;20105;-67
2022/01/23 08:27:05;;;;;;;94.90;38.92;;;;;;;;;;5011267;28;20041;-67
2022/01/23 08:29:30;;;;;;;107.13;40.83;;;;;;;;;;5011046;28;20105;-66
2022/01/23 08:31:56;;;;;;;103.05;39.47;;;;;;;;;;5011299;28;20058;-66
2022/01/23 08:34:21;;;;;;;110.05;42.60;;;;;;;;;;5004011;28;20498;-66
2022/01/23 08:36:46;;;;;;;109.75;41.55;;;;;;;;;;5008013;28;20056;-67
2022/01/23 08:39:12;;;;;;;107.45;39.92;;;;;;;;;;5008720;28;20018;-66
2022/01/23 08:41:49;;;;;;;114.53;41.42;;;;;;;;;;5008179;28;20077;-67
2022/01/23 08:44:15;;;;;;;99.47;41.13;;;;;;;;;;5009153;28;20075;-66
2022/01/23 08:46:40;;;;;;;109.55;42.85;;;;;;;;;;5006538;28;20026;-67
2022/01/23 08:49:06;;;;;;;108.65;40.40;;;;;;;;;;5008603;28;20041;-66
2022/01/23 08:51:31;;;;;;;98.73;39.43;;;;;;;;;;5008696;28;20450;-66
2022/01/23 08:53:58;;;;;;;103.95;39.63;;;;;;;;;;5007590;28;20276;-66
2022/01/23 08:56:23;;;;;;;97.45;41.15;;;;;;;;;;5008180;28;20314;-66
2022/01/23 08:58:49;;;;;;;96.47;38.95;;;;;;;;;;5005046;28;20030;-65
2022/01/23 09:01:14;;;;;;;100.35;40.45;;;;;;;;;;5008428;28;20029;-66
2022/01/23 09:03:40;;;;;;;116.53;44.72;;;;;;;;;;5008558;28;20071;-66
2022/01/23 09:06:07;;;;;;;99.15;39.03;;;;;;;;;;5008699;28;20112;-66
2022/01/23 09:08:35;;;;;;;100.55;39.30;;;;;;;;;;5008108;28;20022;-66
2022/01/23 09:11:07;;;;;;;96.50;39.38;;;;;;;;;;5008384;28;20080;-66
2022/01/23 09:14:06;;;;;;;103.43;40.50;;;;;;;;;;5006572;28;20038;-67
2022/01/23 09:16:17;;;;;;;96.38;40.55;;;;;;;;;;5007834;28;20517;-66
2022/01/23 09:18:43;;;;;;;104.40;41.70;;;;;;;;;;5006998;28;20037;-66
2022/01/23 09:21:08;;;;;;;114.32;42.78;;;;;;;;;;5008290;28;20030;-67
2022/01/23 09:23:33;;;;;;;102.00;42.30;;;;;;;;;;5007736;28;20029;-66
2022/01/23 09:26:06;;;;;;;110.10;41.05;;;;;;;;;;5007884;28;20374;-66
2022/01/23 09:28:33;;;;;;;108.57;40.58;;;;;;;;;;5007489;28;20084;-66
2022/01/23 09:30:59;;;;;;;109.15;40.90;;;;;;;;;;5007579;28;20033;-66
2022/01/23 09:33:24;;;;;;;106.95;42.05;;;;;;;;;;5006384;28;20057;-66
2022/01/23 09:35:49;;;;;;;102.35;40.63;;;;;;;;;;5007622;28;20022;-66
2022/01/23 09:38:14;;;;;;;116.40;41.90;;;;;;;;;;4990020;28;20437;-65
2022/01/23 09:40:43;;;;;;;104.93;39.35;;;;;;;;;;5007922;28;20661;-66
2022/01/23 09:43:09;;;;;;;98.53;41.00;;;;;;;;;;5008130;28;20072;-66
2022/01/23 09:45:35;;;;;;;108.07;41.60;;;;;;;;;;5004904;28;20061;-66
2022/01/23 09:48:01;;;;;;;105.68;40.53;;;;;;;;;;5000897;28;20060;-67
2022/01/23 09:50:27;;;;;;;102.32;39.72;;;;;;;;;;5007912;28;20485;-66
2022/01/23 09:52:55;;;;;;;106.57;40.10;;;;;;;;;;5007046;28;20026;-66
2022/01/23 09:55:22;;;;;;;91.88;36.03;;;;;;;;;;5006829;28;20486;-66
2022/01/23 09:57:48;;;;;;;104.35;42.60;;;;;;;;;;5007015;28;20036;-66
2022/01/23 10:00:15;;;;;;;102.55;40.60;;;;;;;;;;5007267;28;20065;-66
2022/01/23 10:02:41;;;;;;;95.72;38.80;;;;;;;;;;5000410;28;20036;-66
2022/01/23 10:05:07;;;;;;;104.85;41.20;;;;;;;;;;4999439;28;20490;-66
2022/01/23 10:07:35;;;;;;;103.32;42.63;;;;;;;;;;5004457;28;20022;-64
2022/01/23 10:10:10;;;;;;;106.60;41.35;;;;;;;;;;5002349;28;20030;-65
2022/01/23 10:12:42;;;;;;;103.60;39.03;;;;;;;;;;5004045;28;20034;-66
2022/01/23 10:15:08;;;;;;;107.90;40.70;;;;;;;;;;4998426;28;20021;-66
2022/01/23 10:17:33;;;;;;;101.00;40.20;;;;;;;;;;4998191;28;20478;-66
2022/01/23 10:19:59;;;;;;;89.47;34.90;;;;;;;;;;5005295;28;20026;-66
2022/01/23 10:22:24;;;;;;;103.90;37.75;;;;;;;;;;4999771;28;20049;-66
2022/01/23 10:24:50;;;;;;;99.15;40.45;;;;;;;;;;5000381;28;20018;-65
2022/01/23 10:27:16;;;;;;;97.47;38.08;;;;;;;;;;5002377;28;20064;-65
2022/01/23 10:29:45;;;;;;;97.80;38.63;;;;;;;;;;5009472;28;20099;-67
2022/01/23 10:32:21;;;;;;;92.75;37.47;;;;;;;;;;5006619;28;20136;-67
2022/01/23 10:35:01;;;;;;;105.00;37.70;;;;;;;;;;5001089;28;20033;-66
2022/01/23 10:37:40;;;;;;;86.65;37.85;;;;;;;;;;5003883;28;20022;-66
2022/01/23 10:40:09;;;;;;;92.28;37.15;;;;;;;;;;5009180;28;20171;-67
2022/01/23 10:47:56;;;;;;;95.75;38.00;;;;;;;;;;5009798;28;20080;-66
2022/01/23 10:50:22;;;;;;;88.53;33.97;;;;;;;;;;5012674;28;20032;-66
2022/01/23 10:52:48;;;;;;;94.60;34.88;;;;;;;;;;5009816;28;20041;-66
2022/01/23 10:55:13;;;;;;;100.65;38.17;;;;;;;;;;5010161;28;20037;-66
2022/01/23 10:57:42;;;;;;;94.20;37.58;;;;;;;;;;5012140;28;20060;-65
2022/01/23 11:00:09;;;;;;;90.05;37.45;;;;;;;;;;5012364;28;20299;-66
2022/01/23 11:02:37;;;;;;;93.03;33.95;;;;;;;;;;5011506;28;20037;-66
2022/01/23 11:05:05;;;;;;;93.18;35.35;;;;;;;;;;5011631;28;20049;-65
2022/01/23 11:07:31;;;;;;;102.93;38.80;;;;;;;;;;5011911;28;20425;-67
2022/01/23 11:10:02;;;;;;;98.60;38.28;;;;;;;;;;5013063;28;20117;-64
2022/01/23 11:12:46;;;;;;;97.60;38.08;;;;;;;;;;5011862;28;20022;-66
2022/01/23 11:17:59;;;;;;;91.68;35.42;;;;;;;;;;5009039;28;20118;-66
2022/01/23 11:20:30;;;;;;;91.45;36.22;;;;;;;;;;5012204;28;20029;-67
2022/01/23 11:23:14;;;;;;;94.60;35.83;;;;;;;;;;5013494;28;20024;-67
2022/01/23 11:25:40;;;;;;;88.35;34.33;;;;;;;;;;5011914;28;20084;-67
2022/01/23 11:28:05;;;;;;;88.10;33.45;;;;;;;;;;5010453;28;20136;-66
2022/01/23 11:30:35;;;;;;;91.70;35.42;;;;;;;;;;5012124;28;20105;-66
2022/01/23 11:33:01;;;;;;;88.72;34.80;;;;;;;;;;5012236;28;20025;-67
2022/01/23 11:35:27;;;;;;;96.80;37.13;;;;;;;;;;5011353;28;20437;-66
2022/01/23 11:37:53;;;;;;;87.30;35.38;;;;;;;;;;5011921;28;20546;-66
2022/01/23 11:40:34;;;;;;;86.80;32.03;;;;;;;;;;5012832;28;20116;-67
2022/01/23 11:53:54;;;;;;;93.15;34.67;;;;;;;;;;5002945;28;20168;-66
2022/01/23 11:56:25;;;;;;;90.88;33.63;;;;;;;;;;5011236;28;20449;-66
2022/01/23 11:58:54;;;;;;;73.90;28.98;;;;;;;;;;5010200;28;20381;-65
2022/01/23 12:01:26;;;;;;;84.53;32.05;;;;;;;;;;5011137;28;20466;-64
2022/01/23 12:04:06;;;;;;;83.25;31.40;;;;;;;;;;5011901;28;20065;-65
2022/01/23 12:06:32;;;;;;;75.78;32.13;;;;;;;;;;5011448;28;20107;-65
2022/01/23 12:09:09;;;;;;;82.75;32.53;;;;;;;;;;5011334;28;20045;-67
2022/01/23 12:16:52;;;;;;;83.05;31.50;;;;;;;;;;5007932;28;20030;-64
2022/01/23 12:19:18;;;;;;;83.57;32.15;;;;;;;;;;5009342;28;20036;-65
2022/01/23 12:21:45;;;;;;;87.55;34.92;;;;;;;;;;5010396;28;20028;-64
2022/01/23 12:24:12;;;;;;;81.30;33.30;;;;;;;;;;5006133;28;20140;-67
2022/01/23 12:26:37;;;;;;;84.35;31.35;;;;;;;;;;5008957;28;20053;-66
2022/01/23 12:29:13;;;;;;;85.10;32.45;;;;;;;;;;5009717;28;20029;-66
2022/01/23 12:31:38;;;;;;;80.22;30.65;;;;;;;;;;4989632;28;20029;-65
2022/01/23 12:34:04;;;;;;;79.38;29.60;;;;;;;;;;5004639;28;20128;-66
2022/01/23 12:36:33;;;;;;;74.90;28.58;;;;;;;;;;5010593;28;20059;-66
2022/01/23 12:39:16;;;;;;;61.63;25.35;;;;;;;;;;5009513;28;20021;-66
2022/01/23 12:41:50;;;;;;;64.20;26.60;;;;;;;;;;5006690;28;20018;-66
2022/01/23 12:44:25;;;;;;;74.63;26.85;;;;;;;;;;5006254;28;20022;-67
2022/01/23 12:46:55;;;;;;;69.93;26.15;;;;;;;;;;5007269;28;20024;-67
2022/01/23 12:49:20;;;;;;;;;;;;;;;;;;5009864;28;20013;-67
2022/01/23 12:51:47;;;;;;;69.18;28.27;;;;;;;;;;4999158;28;19971;-66
2022/01/23 12:54:20;;;;;;;72.97;27.67;;;;;;;;;;5007528;28;20029;-67
2022/01/23 12:56:47;;;;;;;62.03;25.73;;;;;;;;;;5004635;28;20037;-66
2022/01/23 12:59:20;;;;;;;62.63;25.02;;;;;;;;;;5006843;28;20018;-66
2022/01/23 13:01:47;;;;;;;60.28;22.67;;;;;;;;;;5010241;28;20029;-67
2022/01/23 13:04:13;;;;;;;71.38;26.27;;;;;;;;;;5008968;28;20188;-66
2022/01/23 13:06:54;;;;;;;64.32;26.38;;;;;;;;;;5009840;28;20129;-66
2022/01/23 13:12:03;;;;;;;68.18;27.80;;;;;;;;;;5010539;28;20652;-66
2022/01/23 13:14:40;;;;;;;71.47;26.02;;;;;;;;;;5009969;28;20022;-66
2022/01/23 13:30:51;;;;;;;64.78;26.80;;;;;;;;;;5010465;28;20069;-66
2022/01/23 13:33:21;;;;;;;71.28;26.25;;;;;;;;;;5010143;28;20057;-66
2022/01/23 13:35:51;;;;;;;71.60;27.58;;;;;;;;;;4999324;28;20076;-66
2022/01/23 13:38:18;;;;;;;67.65;26.77;;;;;;;;;;5005467;28;20386;-66
2022/01/23 13:40:44;;;;;;;60.50;25.48;;;;;;;;;;5009438;28;20025;-66
2022/01/23 13:59:09;;;;;;;69.43;27.17;;;;;;;;;;4966524;28;20085;-65
2022/01/23 14:01:49;;;;;;;63.92;26.27;;;;;;;;;;4970355;28;20023;-65
2022/01/23 14:04:15;;;;;;;68.07;25.95;;;;;;;;;;4958275;28;20093;-65
2022/01/23 14:06:40;;;;;;;66.72;27.25;;;;;;;;;;4971040;28;20014;-65
2022/01/23 14:09:06;;;;;;;67.10;26.98;;;;;;;;;;4969734;28;20026;-65
2022/01/23 14:11:32;;;;;;;67.43;27.27;;;;;;;;;;4970108;28;20014;-65
2022/01/23 14:14:16;;;;;;;67.15;26.73;;;;;;;;;;4962188;28;20128;-64
2022/01/23 14:16:42;;;;;;;72.03;27.67;;;;;;;;;;4968086;28;20093;-65
2022/01/23 14:19:23;;;;;;;57.72;25.77;;;;;;;;;;4968903;28;20062;-65
2022/01/23 14:21:49;;;;;;;68.85;27.48;;;;;;;;;;4973838;28;20029;-65
2022/01/23 14:24:25;;;;;;;72.50;28.25;;;;;;;;;;4974505;28;20027;-65
2022/01/23 14:26:56;;;;;;;71.00;28.15;;;;;;;;;;4974318;28;20094;-65
2022/01/23 14:29:24;;;;;;;70.07;27.13;;;;;;;;;;4972525;28;20019;-65
2022/01/23 14:32:05;;;;;;;68.38;26.67;;;;;;;;;;4973199;28;20023;-65
2022/01/23 14:34:30;;;;;;;74.57;27.77;;;;;;;;;;4972075;28;20050;-65
2022/01/23 14:36:56;;;;;;;67.80;24.55;;;;;;;;;;4973376;28;20730;-65
2022/01/23 14:39:23;;;;;;;70.57;26.17;;;;;;;;;;4973812;28;20034;-65
2022/01/23 14:41:48;;;;;;;69.30;27.60;;;;;;;;;;4974169;28;20341;-65
2022/01/23 14:44:17;;;;;;;67.43;27.65;;;;;;;;;;4973042;28;20097;-65
2022/01/23 14:46:50;;;;;;;69.15;26.83;;;;;;;;;;4973636;28;20023;-66
2022/01/23 14:49:22;;;;;;;61.58;26.42;;;;;;;;;;4972796;28;20052;-65
2022/01/23 14:51:48;;;;;;;69.15;27.13;;;;;;;;;;4973108;28;20492;-66
2022/01/23 14:54:15;;;;;;;62.95;24.13;;;;;;;;;;4973834;28;20117;-66
2022/01/23 14:56:40;;;;;;;62.30;24.80;;;;;;;;;;4973800;28;20027;-65
2022/01/23 14:59:12;;;;;;;62.63;24.52;;;;;;;;;;4972976;28;20124;-66
2022/01/23 15:01:37;;;;;;;70.05;27.45;;;;;;;;;;4973125;28;20145;-65
2022/01/23 15:04:08;;;;;;;67.07;26.30;;;;;;;;;;4972825;28;20101;-65
2022/01/23 15:06:33;;;;;;;66.75;25.27;;;;;;;;;;4973390;28;20042;-65
2022/01/23 15:09:05;;;;;;;66.70;27.13;;;;;;;;;;4972943;28;20491;-65
2022/01/23 15:11:31;;;;;;;67.30;28.48;;;;;;;;;;4971575;28;20019;-65
2022/01/23 15:13:56;;;;;;;71.38;27.92;;;;;;;;;;4972702;28;20482;-65
2022/01/23 15:16:21;;;;;;;73.90;27.33;;;;;;;;;;4973367;28;20388;-65
2022/01/23 15:18:46;;;;;;;69.33;27.73;;;;;;;;;;4971779;28;20274;-65
2022/01/23 15:21:12;;;;;;;67.07;26.90;;;;;;;;;;4973417;28;20278;-65
2022/01/23 15:23:38;;;;;;;71.97;27.10;;;;;;;;;;4973568;28;20439;-65
2022/01/23 15:26:03;;;;;;;69.05;26.40;;;;;;;;;;4973285;28;20042;-65
2022/01/23 15:28:28;;;;;;;59.40;24.92;;;;;;;;;;4972451;28;20415;-65
2022/01/23 15:30:53;;;;;;;56.35;24.73;;;;;;;;;;4972954;28;20031;-65
2022/01/23 15:33:18;;;;;;;63.55;24.80;;;;;;;;;;4971216;28;20077;-66
2022/01/23 15:35:47;;;;;;;61.05;22.67;;;;;;;;;;4972832;28;20015;-66
2022/01/23 15:38:13;;;;;;;55.13;22.80;;;;;;;;;;4965417;28;20018;-65
2022/01/23 15:40:38;;;;;;;55.30;22.77;;;;;;;;;;4972872;28;20460;-66
2022/01/23 15:43:03;;;;;;;51.22;22.77;;;;;;;;;;4972759;28;20480;-66
2022/01/23 15:45:28;;;;;;;61.80;23.30;;;;;;;;;;4971328;28;20035;-66
2022/01/23 15:47:53;;;;;;;50.20;21.73;;;;;;;;;;4971091;28;20024;-66
2022/01/23 15:50:21;;;;;;;56.63;23.67;;;;;;;;;;4971687;28;20750;-65
2022/01/23 15:52:47;;;;;;;69.50;25.42;;;;;;;;;;4972290;28;20030;-66
2022/01/23 15:55:14;;;;;;;61.88;23.83;;;;;;;;;;4970865;28;20493;-66
2022/01/23 15:57:40;;;;;;;56.67;24.13;;;;;;;;;;4957041;28;20079;-66
2022/01/23 16:00:06;;;;;;;59.65;23.75;;;;;;;;;;4962576;28;20035;-66
2022/01/23 16:02:31;;;;;;;57.10;24.30;;;;;;;;;;4972964;28;20587;-66
2022/01/23 16:04:59;;;;;;;54.75;23.38;;;;;;;;;;4971816;28;20105;-65
2022/01/23 16:07:25;;;;;;;63.75;23.50;;;;;;;;;;4970440;28;20503;-65
2022/01/23 16:09:50;;;;;;;64.18;26.23;;;;;;;;;;4969842;28;20022;-65
2022/01/23 16:12:16;;;;;;;60.57;24.97;;;;;;;;;;4971414;28;20136;-65
2022/01/23 16:14:41;;;;;;;60.72;23.83;;;;;;;;;;4971790;28;20266;-65
2022/01/23 16:17:07;;;;;;;61.45;25.40;;;;;;;;;;4969275;28;20026;-66
2022/01/23 16:19:32;;;;;;;58.88;25.30;;;;;;;;;;4971562;28;20022;-66
2022/01/23 16:21:58;;;;;;;70.13;26.30;;;;;;;;;;4971831;28;20033;-65
2022/01/23 16:24:23;;;;;;;58.55;23.45;;;;;;;;;;4967488;28;20034;-65
2022/01/23 16:26:49;;;;;;;52.15;21.17;;;;;;;;;;4959090;28;20079;-65
2022/01/23 16:29:15;;;;;;;52.60;22.23;;;;;;;;;;4961380;28;20026;-66
2022/01/23 16:31:40;;;;;;;64.30;24.27;;;;;;;;;;4971536;28;20030;-67
2022/01/23 16:34:05;;;;;;;54.72;23.45;;;;;;;;;;4971776;28;20033;-66
2022/01/23 16:36:32;;;;;;;48.05;21.95;;;;;;;;;;4970548;28;20026;-66
2022/01/23 16:38:58;;;;;;;52.50;21.33;;;;;;;;;;4971633;28;20030;-66
2022/01/23 16:41:23;;;;;;;56.17;22.03;;;;;;;;;;4970710;28;20058;-66
2022/01/23 16:43:48;;;;;;;45.30;20.38;;;;;;;;;;4970050;28;20369;-67
2022/01/23 16:46:13;;;;;;;48.45;19.98;;;;;;;;;;4971409;28;20030;-66
2022/01/23 16:48:39;;;;;;;45.78;19.45;;;;;;;;;;4971988;28;20034;-67
2022/01/23 16:51:04;;;;;;;41.70;18.08;;;;;;;;;;4971138;28;20425;-66
2022/01/23 16:53:30;;;;;;;41.38;16.17;;;;;;;;;;4971342;28;20169;-66
2022/01/23 16:55:58;;;;;;;37.08;15.25;;;;;;;;;;4971086;28;20054;-66
2022/01/23 16:58:27;;;;;;;33.53;13.38;;;;;;;;;;4970771;28;20038;-66
2022/01/23 17:00:53;;;;;;;35.03;14.57;;;;;;;;;;4970115;28;20387;-66
2022/01/23 17:03:18;;;;;;;32.22;14.07;;;;;;;;;;4971634;28;20023;-66
2022/01/23 17:05:45;;;;;;;30.65;13.50;;;;;;;;;;4970763;28;20035;-66
2022/01/23 17:08:11;;;;;;;31.42;12.32;;;;;;;;;;4971073;28;20101;-65
2022/01/23 17:10:36;;;;;;;26.15;12.88;;;;;;;;;;4971791;28;20026;-65
2022/01/23 17:13:02;;;;;;;28.42;12.73;;;;;;;;;;4969983;28;20514;-65
2022/01/23 17:15:27;;;;;;;31.90;13.38;;;;;;;;;;4970357;28;20023;-65
2022/01/23 17:17:52;;;;;;;31.58;13.70;;;;;;;;;;4970901;28;20023;-66
2022/01/23 17:20:20;;;;;;;29.10;13.23;;;;;;;;;;4971678;28;20027;-66
2022/01/23 17:22:45;;;;;;;34.65;14.70;;;;;;;;;;4969951;28;20019;-66
2022/01/23 17:25:11;;;;;;;38.47;13.20;;;;;;;;;;4970988;28;20387;-66
2022/01/23 17:27:36;;;;;;;40.95;16.23;;;;;;;;;;4970968;28;20460;-66
2022/01/23 17:30:02;;;;;;;34.87;15.40;;;;;;;;;;4970348;28;20026;-66
2022/01/23 17:32:27;;;;;;;35.40;15.75;;;;;;;;;;4970868;28;20362;-66
2022/01/23 17:34:52;;;;;;;31.67;14.95;;;;;;;;;;4970121;28;20050;-65
2022/01/23 17:37:19;;;;;;;33.45;14.70;;;;;;;;;;4970047;28;20034;-65